WXM80 ListenWXM80 Stop

You find our weather info also at:

UK Metoffice

WeatherCloud

Weather Underground

Northeastern Weather Network

AWEKAS

Citizen Weather Observer Program (CWOP)

HAMweather, WeatherForYou, PWS Weather


Weather Underground History page Text

Daily Summary for September 16, 2017 Units:  English    Metric   Both
« Previous Day
Next Day »
Daily Weekly Monthly Yearly Custom
  High: Low: Average:
Temperature: 78.9 °F 66.7 °F 72.1 °F
Dew Point: 71.9 °F 64.6 °F 68.9 °F
Humidity: 96 % 78 % 90 %
Wind Speed: 3.9 mph 0.0 mph 0.3 mph
Wind Gust: 7.0 mph - -
Wind:- - ENE
Pressure: 30.11 in 30.04 in -
Precipitation: 0.00 in    
Historical Graphs
 
 
Tabular Data for September 16, 2017
Time Temperature Dew Point Pressure Wind Wind Speed Wind Gust Humidity Rainfall Rate (Hourly)
00:00 71.0 °F 68.6 °F 30.04 in SE 0.2 mph 1.2 mph 92 % 0.00 in
00:05 71.0 °F 68.6 °F 30.04 in SE 0.2 mph 2.3 mph 92 % 0.00 in
00:10 71.0 °F 68.6 °F 30.04 in Calm     92 % 0.00 in
00:15 71.0 °F 68.6 °F 30.04 in Calm     92 % 0.00 in
00:20 71.0 °F 68.6 °F 30.05 in Calm     92 % 0.00 in
00:25 71.0 °F 68.6 °F 30.05 in Calm     92 % 0.00 in
00:30 70.9 °F 68.5 °F 30.05 in Calm   1.0 mph 92 % 0.00 in
00:35 71.0 °F 68.9 °F 30.05 in Calm     93 % 0.00 in
00:40 70.9 °F 68.5 °F 30.05 in Calm     92 % 0.00 in
00:45 70.9 °F 68.8 °F 30.05 in Calm     93 % 0.00 in
00:50 71.0 °F 68.9 °F 30.05 in Calm     93 % 0.00 in
00:56 70.9 °F 68.8 °F 30.05 in Calm     93 % 0.00 in
01:01 70.9 °F 68.8 °F 30.05 in Calm     93 % 0.00 in
01:06 70.9 °F 68.5 °F 30.05 in Calm     92 % 0.00 in
01:11 70.8 °F 68.4 °F 30.05 in Calm     92 % 0.00 in
01:16 70.8 °F 68.4 °F 30.05 in Calm     92 % 0.00 in
01:21 70.7 °F 68.3 °F 30.05 in Calm     92 % 0.00 in
01:26 70.7 °F 68.3 °F 30.05 in Calm     92 % 0.00 in
01:31 70.6 °F 68.2 °F 30.05 in Calm     92 % 0.00 in
01:36 70.5 °F 68.1 °F 30.05 in Calm     92 % 0.00 in
01:41 70.5 °F 68.1 °F 30.05 in Calm     92 % 0.00 in
01:46 70.4 °F 68.0 °F 30.04 in Calm     92 % 0.00 in
01:51 70.4 °F 68.0 °F 30.04 in Calm     92 % 0.00 in
01:56 70.3 °F 67.9 °F 30.05 in Calm     92 % 0.00 in
02:01 70.2 °F 67.8 °F 30.04 in Calm     92 % 0.00 in
02:06 70.1 °F 67.7 °F 30.04 in Calm     92 % 0.00 in
02:12 70.1 °F 67.7 °F 30.04 in Calm     92 % 0.00 in
02:17 70.1 °F 67.7 °F 30.04 in Calm     92 % 0.00 in
02:22 70.0 °F 67.6 °F 30.04 in Calm     92 % 0.00 in
02:27 70.0 °F 67.9 °F 30.04 in Calm     93 % 0.00 in
02:32 69.9 °F 67.8 °F 30.04 in Calm     93 % 0.00 in
02:37 69.9 °F 67.8 °F 30.05 in Calm     93 % 0.00 in
02:42 69.9 °F 67.8 °F 30.04 in Calm     93 % 0.00 in
02:47 69.8 °F 67.7 °F 30.05 in Calm     93 % 0.00 in
02:52 69.8 °F 67.7 °F 30.04 in Calm     93 % 0.00 in
02:57 69.8 °F 67.7 °F 30.04 in Calm     93 % 0.00 in
03:02 69.7 °F 67.6 °F 30.04 in Calm     93 % 0.00 in
03:07 69.7 °F 67.6 °F 30.04 in Calm     93 % 0.00 in
03:12 69.7 °F 67.6 °F 30.04 in Calm     93 % 0.00 in
03:17 69.7 °F 67.6 °F 30.04 in Calm     93 % 0.00 in
03:23 69.6 °F 67.5 °F 30.04 in Calm     93 % 0.00 in
03:28 69.7 °F 67.6 °F 30.04 in Calm     93 % 0.00 in
03:33 69.7 °F 67.6 °F 30.04 in Calm     93 % 0.00 in
03:38 69.7 °F 67.9 °F 30.04 in Calm     94 % 0.00 in
03:43 69.7 °F 67.9 °F 30.04 in Calm     94 % 0.00 in
03:48 69.7 °F 67.9 °F 30.04 in Calm     94 % 0.00 in
03:53 69.7 °F 67.9 °F 30.05 in Calm     94 % 0.00 in
03:58 69.7 °F 67.9 °F 30.05 in Calm     94 % 0.00 in
04:03 69.7 °F 67.9 °F 30.05 in Calm     94 % 0.00 in
04:08 69.7 °F 67.9 °F 30.05 in Calm     94 % 0.00 in
04:13 69.7 °F 67.9 °F 30.05 in Calm     94 % 0.00 in
04:18 69.7 °F 67.9 °F 30.04 in Calm     94 % 0.00 in
04:24 69.7 °F 67.9 °F 30.04 in Calm     94 % 0.00 in
04:29 69.9 °F 68.4 °F 30.05 in Calm     95 % 0.00 in
04:34 69.9 °F 68.4 °F 30.04 in Calm     95 % 0.00 in
04:39 70.0 °F 68.5 °F 30.04 in Calm     95 % 0.00 in
04:44 70.0 °F 68.5 °F 30.04 in Calm     95 % 0.00 in
04:49 70.1 °F 68.6 °F 30.04 in Calm     95 % 0.00 in
04:55 70.2 °F 68.7 °F 30.05 in Calm     95 % 0.00 in
05:00 70.2 °F 69.0 °F 30.05 in Calm     96 % 0.00 in
05:05 70.3 °F 69.1 °F 30.05 in Calm     96 % 0.00 in
05:10 70.3 °F 69.1 °F 30.05 in Calm     96 % 0.00 in
05:15 70.3 °F 69.1 °F 30.05 in Calm     96 % 0.00 in
05:20 70.3 °F 69.1 °F 30.05 in Calm     96 % 0.00 in
05:25 70.2 °F 69.0 °F 30.05 in Calm     96 % 0.00 in
05:30 70.2 °F 69.0 °F 30.05 in Calm     96 % 0.00 in
05:35 70.2 °F 69.0 °F 30.05 in Calm     96 % 0.00 in
05:40 70.2 °F 69.0 °F 30.05 in Calm     96 % 0.00 in
05:45 70.2 °F 69.0 °F 30.06 in Calm     96 % 0.00 in
05:50 70.2 °F 69.0 °F 30.06 in Calm     96 % 0.00 in
05:56 70.2 °F 69.0 °F 30.06 in Calm     96 % 0.00 in
06:01 70.2 °F 69.0 °F 30.06 in Calm     96 % 0.00 in
06:06 70.2 °F 69.0 °F 30.07 in Calm     96 % 0.00 in
06:11 70.2 °F 69.0 °F 30.07 in Calm     96 % 0.00 in
06:16 70.2 °F 69.0 °F 30.07 in Calm     96 % 0.00 in
06:21 70.2 °F 69.0 °F 30.07 in Calm     96 % 0.00 in
06:26 70.2 °F 69.0 °F 30.07 in Calm     96 % 0.00 in
06:31 70.2 °F 69.0 °F 30.08 in Calm     96 % 0.00 in
06:36 70.2 °F 69.0 °F 30.08 in Calm     96 % 0.00 in
06:41 70.2 °F 69.0 °F 30.08 in SE 0.2 mph 1.0 mph 96 % 0.00 in
06:46 70.2 °F 69.0 °F 30.08 in Calm     96 % 0.00 in
06:51 70.2 °F 69.0 °F 30.08 in Calm   1.2 mph 96 % 0.00 in
06:52 70.2 °F 69.0 °F 30.08 in Calm   1.2 mph 96 % 0.00 in
06:57 70.2 °F 69.0 °F 30.08 in Calm     96 % 0.00 in
07:02 70.2 °F 69.0 °F 30.08 in Calm     96 % 0.00 in
07:07 70.2 °F 69.0 °F 30.08 in SE 0.5 mph 1.2 mph 96 % 0.00 in
07:12 70.1 °F 68.9 °F 30.08 in Calm     96 % 0.00 in
07:17 70.1 °F 68.9 °F 30.08 in Calm     96 % 0.00 in
07:22 70.1 °F 68.9 °F 30.08 in Calm     96 % 0.00 in
07:27 70.2 °F 69.0 °F 30.08 in Calm     96 % 0.00 in
07:32 70.1 °F 68.9 °F 30.09 in Calm     96 % 0.00 in
07:37 70.2 °F 69.0 °F 30.09 in Calm     96 % 0.00 in
07:42 70.2 °F 69.0 °F 30.09 in Calm     96 % 0.00 in
07:47 70.2 °F 69.0 °F 30.09 in Calm   2.3 mph 96 % 0.00 in
07:52 70.3 °F 69.1 °F 30.09 in Calm     96 % 0.00 in
07:58 70.3 °F 69.1 °F 30.09 in Calm     96 % 0.00 in
08:03 70.3 °F 69.1 °F 30.09 in Calm     96 % 0.00 in
08:08 70.4 °F 69.2 °F 30.09 in Calm     96 % 0.00 in
08:18 70.4 °F 69.2 °F 30.09 in Calm     96 % 0.00 in
08:23 70.4 °F 69.2 °F 30.10 in Calm     96 % 0.00 in
08:28 70.5 °F 69.3 °F 30.10 in Calm     96 % 0.00 in
08:33 70.5 °F 69.3 °F 30.09 in Calm     96 % 0.00 in
08:43 70.6 °F 69.4 °F 30.10 in Calm     96 % 0.00 in
08:48 70.7 °F 69.5 °F 30.10 in Calm     96 % 0.00 in
08:53 70.8 °F 69.6 °F 30.10 in Calm     96 % 0.00 in
08:59 70.8 °F 69.6 °F 30.10 in Calm     96 % 0.00 in
09:04 71.0 °F 69.8 °F 30.11 in Calm     96 % 0.00 in
09:09 71.0 °F 69.8 °F 30.11 in Calm     96 % 0.00 in
09:14 71.1 °F 69.9 °F 30.11 in SE 0.3 mph 1.2 mph 96 % 0.00 in
09:19 71.2 °F 70.0 °F 30.11 in Calm   1.2 mph 96 % 0.00 in
09:29 71.3 °F 69.8 °F 30.11 in NE 0.2 mph 2.3 mph 95 % 0.00 in
09:34 71.3 °F 69.8 °F 30.11 in Calm     95 % 0.00 in
09:39 71.4 °F 69.9 °F 30.11 in Calm     95 % 0.00 in
09:44 71.5 °F 70.0 °F 30.11 in Calm     95 % 0.00 in
09:49 71.5 °F 70.0 °F 30.11 in Calm     95 % 0.00 in
09:54 71.6 °F 70.1 °F 30.11 in NE 0.2 mph 1.0 mph 95 % 0.00 in
10:00 71.7 °F 69.9 °F 30.11 in Calm     94 % 0.00 in
10:05 71.9 °F 70.1 °F 30.11 in Calm   1.2 mph 94 % 0.00 in
10:10 72.0 °F 70.2 °F 30.11 in Calm   1.0 mph 94 % 0.00 in
10:15 72.1 °F 70.3 °F 30.11 in Calm   1.0 mph 94 % 0.00 in
10:20 72.2 °F 70.4 °F 30.11 in ENE 0.1 mph 1.2 mph 94 % 0.00 in
10:25 72.3 °F 70.5 °F 30.11 in Calm   1.2 mph 94 % 0.00 in
10:30 72.4 °F 70.3 °F 30.11 in ENE 0.1 mph 1.2 mph 93 % 0.00 in
10:35 72.5 °F 70.4 °F 30.11 in ENE 0.1 mph 1.2 mph 93 % 0.00 in
10:40 72.6 °F 70.1 °F 30.11 in Calm   1.2 mph 92 % 0.00 in
10:45 72.6 °F 70.1 °F 30.11 in Calm   1.2 mph 92 % 0.00 in
10:50 72.7 °F 70.2 °F 30.11 in Calm     92 % 0.00 in
10:55 72.8 °F 70.3 °F 30.11 in ENE 0.1 mph 1.2 mph 92 % 0.00 in
11:01 72.9 °F 70.4 °F 30.11 in Calm     92 % 0.00 in
11:06 73.0 °F 70.2 °F 30.11 in ENE 0.4 mph 3.5 mph 91 % 0.00 in
11:11 73.1 °F 70.3 °F 30.11 in ENE 0.1 mph 2.3 mph 91 % 0.00 in
11:16 73.2 °F 70.1 °F 30.11 in NE 1.1 mph 3.5 mph 90 % 0.00 in
11:21 73.3 °F 70.2 °F 30.11 in North 1.0 mph 2.3 mph 90 % 0.00 in
11:26 73.4 °F 70.3 °F 30.11 in NE 0.2 mph 2.3 mph 90 % 0.00 in
11:31 73.5 °F 70.4 °F 30.11 in North 1.7 mph 3.5 mph 90 % 0.00 in
11:36 73.7 °F 70.6 °F 30.11 in NNE 2.9 mph 4.6 mph 90 % 0.00 in
11:41 73.9 °F 70.5 °F 30.11 in ENE 3.6 mph 5.0 mph 89 % 0.00 in
11:46 74.0 °F 70.2 °F 30.11 in ENE 0.7 mph 3.5 mph 88 % 0.00 in
11:51 74.1 °F 70.3 °F 30.11 in ENE 0.8 mph 5.0 mph 88 % 0.00 in
11:56 74.2 °F 70.4 °F 30.11 in NNE 1.1 mph 3.5 mph 88 % 0.00 in
12:02 74.3 °F 70.2 °F 30.11 in ENE 2.8 mph 4.6 mph 87 % 0.00 in
12:07 74.5 °F 71.0 °F 30.11 in ENE 0.1 mph 1.2 mph 89 % 0.00 in
12:12 74.8 °F 71.0 °F 30.10 in NE 1.7 mph 3.5 mph 88 % 0.00 in
12:17 75.0 °F 70.9 °F 30.10 in ENE 1.7 mph 3.5 mph 87 % 0.00 in
12:22 75.3 °F 71.2 °F 30.10 in NNE 2.3 mph 5.0 mph 87 % 0.00 in
12:27 75.5 °F 71.4 °F 30.10 in NNE 3.3 mph 7.0 mph 87 % 0.00 in
12:32 75.6 °F 71.1 °F 30.10 in ENE 1.4 mph 5.0 mph 86 % 0.00 in
12:37 75.7 °F 70.9 °F 30.10 in NNE 2.9 mph 4.6 mph 85 % 0.00 in
12:42 75.8 °F 71.0 °F 30.10 in NNE 2.3 mph 3.5 mph 85 % 0.00 in
12:47 76.0 °F 71.2 °F 30.11 in NE 2.5 mph 3.5 mph 85 % 0.00 in
12:52 76.1 °F 70.9 °F 30.10 in NNE 3.0 mph 4.6 mph 84 % 0.00 in
12:57 76.2 °F 71.0 °F 30.11 in NE 0.9 mph 2.3 mph 84 % 0.00 in
13:02 76.6 °F 71.7 °F 30.10 in North 2.7 mph 5.0 mph 85 % 0.00 in
13:08 76.9 °F 71.3 °F 30.10 in North 3.7 mph 5.8 mph 83 % 0.00 in
13:13 77.5 °F 71.9 °F 30.10 in NE 0.8 mph 4.6 mph 83 % 0.00 in
13:23 78.1 °F 71.4 °F 30.10 in NE 2.4 mph 5.8 mph 80 % 0.00 in
13:28 78.3 °F 71.2 °F 30.09 in NE 1.6 mph 3.5 mph 79 % 0.00 in
13:33 78.5 °F 71.8 °F 30.09 in NE 3.9 mph 4.6 mph 80 % 0.00 in
13:38 78.6 °F 71.9 °F 30.09 in NNE 2.1 mph 3.5 mph 80 % 0.00 in
13:48 78.9 °F 71.8 °F 30.09 in NE 0.6 mph 3.5 mph 79 % 0.00 in
13:53 78.7 °F 71.3 °F 30.09 in ENE 3.1 mph 5.8 mph 78 % 0.00 in
13:58 78.8 °F 71.7 °F 30.09 in ENE 2.2 mph 7.0 mph 79 % 0.00 in
14:03 78.8 °F 71.4 °F 30.09 in ENE 0.9 mph 3.5 mph 78 % 0.00 in
14:09 78.8 °F 71.4 °F 30.08 in ENE 0.2 mph 2.3 mph 78 % 0.00 in
14:14 78.6 °F 71.2 °F 30.08 in NE 0.2 mph 2.3 mph 78 % 0.00 in
14:19 78.2 °F 70.8 °F 30.08 in ENE 1.3 mph 3.5 mph 78 % 0.00 in
14:24 77.8 °F 70.8 °F 30.08 in NE 2.1 mph 3.5 mph 79 % 0.00 in
14:29 77.6 °F 70.9 °F 30.08 in ENE 0.3 mph 2.0 mph 80 % 0.00 in
14:34 77.3 °F 70.6 °F 30.08 in Calm   2.3 mph 80 % 0.00 in
14:39 77.0 °F 70.4 °F 30.08 in ENE 0.5 mph 2.3 mph 80 % 0.00 in
14:44 76.5 °F 70.2 °F 30.08 in NE 0.4 mph 3.5 mph 81 % 0.00 in
14:49 76.2 °F 70.3 °F 30.08 in ENE 0.7 mph 2.0 mph 82 % 0.00 in
14:54 76.0 °F 70.5 °F 30.08 in Calm     83 % 0.00 in
14:59 75.9 °F 70.4 °F 30.08 in Calm     83 % 0.00 in
15:04 75.8 °F 70.3 °F 30.08 in ENE 0.1 mph 2.3 mph 83 % 0.00 in
15:10 75.8 °F 70.6 °F 30.07 in ENE 0.2 mph 1.2 mph 84 % 0.00 in
15:15 75.8 °F 70.6 °F 30.07 in ENE 0.2 mph 1.2 mph 84 % 0.00 in
15:20 75.9 °F 70.7 °F 30.08 in NE 0.3 mph 1.2 mph 84 % 0.00 in
15:25 75.8 °F 70.3 °F 30.07 in NE 0.3 mph 1.2 mph 83 % 0.00 in
15:30 75.8 °F 70.6 °F 30.07 in NE 0.2 mph 1.2 mph 84 % 0.00 in
15:35 75.9 °F 70.7 °F 30.07 in Calm     84 % 0.00 in
15:40 76.0 °F 70.8 °F 30.07 in NE 0.3 mph 1.2 mph 84 % 0.00 in
15:45 76.0 °F 70.8 °F 30.07 in NE 0.1 mph 1.2 mph 84 % 0.00 in
15:55 76.3 °F 71.1 °F 30.08 in NE 0.1 mph 1.2 mph 84 % 0.00 in
16:00 76.6 °F 71.0 °F 30.08 in NE 0.2 mph 1.2 mph 83 % 0.00 in
16:05 77.0 °F 71.8 °F 30.08 in NE 0.1 mph 1.2 mph 84 % 0.00 in
16:10 77.4 °F 71.8 °F 30.08 in NE 0.2 mph 1.2 mph 83 % 0.00 in
16:16 77.6 °F 71.3 °F 30.08 in NE 0.2 mph 2.3 mph 81 % 0.00 in
16:21 77.6 °F 71.3 °F 30.08 in Calm   1.0 mph 81 % 0.00 in
16:26 77.6 °F 70.9 °F 30.07 in Calm   1.0 mph 80 % 0.00 in
16:31 77.5 °F 71.2 °F 30.07 in Calm     81 % 0.00 in
16:36 77.5 °F 71.2 °F 30.07 in Calm   1.2 mph 81 % 0.00 in
16:41 77.5 °F 71.2 °F 30.07 in Calm     81 % 0.00 in
16:46 77.3 °F 71.4 °F 30.07 in Calm   1.2 mph 82 % 0.00 in
16:51 77.2 °F 71.3 °F 30.07 in Calm     82 % 0.00 in
16:56 77.1 °F 71.5 °F 30.07 in Calm     83 % 0.00 in
17:01 77.0 °F 71.4 °F 30.07 in Calm     83 % 0.00 in
17:06 77.0 °F 71.4 °F 30.07 in ENE 0.3 mph 2.3 mph 83 % 0.00 in
17:12 77.1 °F 71.2 °F 30.07 in Calm   3.5 mph 82 % 0.00 in
17:22 77.1 °F 71.5 °F 30.07 in SSE 0.9 mph 2.3 mph 83 % 0.00 in
17:27 77.0 °F 71.4 °F 30.07 in SE 2.0 mph 4.0 mph 83 % 0.00 in
17:32 77.0 °F 71.4 °F 30.06 in Calm     83 % 0.00 in
17:37 77.0 °F 71.8 °F 30.07 in SE 0.4 mph 1.2 mph 84 % 0.00 in
17:42 77.0 °F 71.8 °F 30.07 in Calm   1.2 mph 84 % 0.00 in
17:47 76.9 °F 71.7 °F 30.07 in SSE 0.7 mph 4.6 mph 84 % 0.00 in
17:52 76.9 °F 71.3 °F 30.07 in SSE 0.6 mph 3.5 mph 83 % 0.00 in
17:57 76.9 °F 71.3 °F 30.07 in SE 2.3 mph 3.5 mph 83 % 0.00 in
18:02 76.7 °F 70.8 °F 30.07 in SSE 1.4 mph 4.6 mph 82 % 0.00 in
18:07 76.5 °F 70.6 °F 30.07 in SE 0.6 mph 2.3 mph 82 % 0.00 in
18:13 76.3 °F 70.4 °F 30.07 in SE 0.4 mph 2.3 mph 82 % 0.00 in
18:18 76.2 °F 70.3 °F 30.07 in Calm   1.2 mph 82 % 0.00 in
18:23 76.1 °F 70.6 °F 30.07 in Calm     83 % 0.00 in
18:28 75.9 °F 70.4 °F 30.07 in SE 0.1 mph 1.2 mph 83 % 0.00 in
18:33 75.7 °F 69.8 °F 30.07 in SE 0.2 mph 2.3 mph 82 % 0.00 in
18:38 75.5 °F 69.6 °F 30.07 in SE 0.1 mph 2.3 mph 82 % 0.00 in
18:43 75.2 °F 69.3 °F 30.08 in Calm     82 % 0.00 in
18:48 74.9 °F 69.4 °F 30.08 in Calm     83 % 0.00 in
18:53 74.8 °F 69.3 °F 30.08 in Calm     83 % 0.00 in
18:58 74.6 °F 69.1 °F 30.08 in Calm   1.0 mph 83 % 0.00 in
19:03 74.4 °F 68.9 °F 30.08 in Calm     83 % 0.00 in
19:08 74.1 °F 69.0 °F 30.08 in Calm     84 % 0.00 in
19:13 73.9 °F 68.8 °F 30.08 in Calm     84 % 0.00 in
19:19 73.6 °F 68.5 °F 30.08 in Calm     84 % 0.00 in
19:24 73.4 °F 68.6 °F 30.08 in Calm     85 % 0.00 in
19:29 73.2 °F 68.4 °F 30.08 in Calm     85 % 0.00 in
19:34 72.9 °F 68.5 °F 30.08 in Calm     86 % 0.00 in
19:39 72.7 °F 68.3 °F 30.08 in Calm     86 % 0.00 in
19:44 72.5 °F 68.1 °F 30.08 in Calm     86 % 0.00 in
19:45 72.4 °F 68.3 °F 30.08 in Calm     87 % 0.00 in
19:50 72.2 °F 68.1 °F 30.09 in Calm     87 % 0.00 in
19:56 71.9 °F 67.8 °F 30.08 in Calm     87 % 0.00 in
20:01 71.7 °F 68.0 °F 30.08 in Calm     88 % 0.00 in
20:06 71.5 °F 67.8 °F 30.09 in Calm     88 % 0.00 in
20:11 71.3 °F 67.6 °F 30.09 in Calm     88 % 0.00 in
20:16 71.1 °F 67.7 °F 30.09 in Calm     89 % 0.00 in
20:21 70.9 °F 67.5 °F 30.09 in Calm     89 % 0.00 in
20:26 70.7 °F 67.3 °F 30.09 in Calm     89 % 0.00 in
20:31 70.6 °F 67.2 °F 30.09 in Calm     89 % 0.00 in
20:36 70.4 °F 67.3 °F 30.08 in Calm     90 % 0.00 in
20:41 70.3 °F 67.2 °F 30.08 in Calm     90 % 0.00 in
20:46 70.1 °F 67.0 °F 30.08 in Calm   1.2 mph 90 % 0.00 in
20:51 70.0 °F 66.9 °F 30.08 in Calm     90 % 0.00 in
20:57 69.9 °F 66.8 °F 30.08 in Calm     90 % 0.00 in
21:02 69.7 °F 66.6 °F 30.08 in Calm     90 % 0.00 in
21:07 69.6 °F 66.5 °F 30.08 in Calm     90 % 0.00 in
21:12 69.5 °F 66.8 °F 30.07 in Calm     91 % 0.00 in
21:17 69.4 °F 66.7 °F 30.07 in Calm     91 % 0.00 in
21:22 69.2 °F 66.5 °F 30.07 in Calm     91 % 0.00 in
21:27 69.1 °F 66.4 °F 30.08 in Calm     91 % 0.00 in
21:28 69.0 °F 66.3 °F 30.08 in Calm     91 % 0.00 in
21:33 68.9 °F 66.2 °F 30.08 in Calm     91 % 0.00 in
21:34 68.9 °F 66.2 °F 30.08 in Calm     91 % 0.00 in
21:39 68.8 °F 66.1 °F 30.08 in Calm     91 % 0.00 in
21:44 68.7 °F 66.0 °F 30.08 in Calm     91 % 0.00 in
21:49 68.6 °F 65.9 °F 30.08 in Calm     91 % 0.00 in
21:54 68.5 °F 65.8 °F 30.08 in Calm     91 % 0.00 in
21:59 68.4 °F 65.7 °F 30.08 in Calm     91 % 0.00 in
22:04 68.3 °F 65.6 °F 30.08 in Calm     91 % 0.00 in
22:09 68.2 °F 65.5 °F 30.08 in Calm     91 % 0.00 in
22:14 68.1 °F 65.4 °F 30.08 in SSW 0.2 mph 1.2 mph 91 % 0.00 in
22:19 68.1 °F 65.4 °F 30.08 in Calm     91 % 0.00 in
22:24 68.0 °F 65.6 °F 30.09 in Calm     92 % 0.00 in
22:29 67.9 °F 65.5 °F 30.08 in Calm     92 % 0.00 in
22:34 67.8 °F 65.4 °F 30.08 in Calm     92 % 0.00 in
22:39 67.8 °F 65.4 °F 30.08 in Calm     92 % 0.00 in
22:45 67.7 °F 65.3 °F 30.09 in Calm     92 % 0.00 in
22:50 67.6 °F 65.2 °F 30.09 in Calm     92 % 0.00 in
22:55 67.5 °F 65.1 °F 30.09 in Calm     92 % 0.00 in
23:00 67.4 °F 65.0 °F 30.09 in Calm     92 % 0.00 in
23:05 67.4 °F 65.0 °F 30.09 in Calm     92 % 0.00 in
23:11 67.2 °F 64.8 °F 30.09 in Calm     92 % 0.00 in
23:16 67.2 °F 64.8 °F 30.09 in Calm     92 % 0.00 in
23:20 67.1 °F 64.7 °F 30.09 in Calm     92 % 0.00 in
23:22 67.1 °F 64.7 °F 30.09 in Calm     92 % 0.00 in
23:23 67.1 °F 64.7 °F 30.09 in Calm     92 % 0.00 in
23:25 67.1 °F 64.7 °F 30.09 in Calm     92 % 0.00 in
23:26 67.1 °F 64.7 °F 30.09 in Calm     92 % 0.00 in
23:31 67.0 °F 64.9 °F 30.09 in Calm     93 % 0.00 in
23:36 67.0 °F 64.9 °F 30.09 in Calm     93 % 0.00 in
23:41 66.9 °F 64.8 °F 30.09 in Calm     93 % 0.00 in
23:46 66.8 °F 64.7 °F 30.09 in Calm     93 % 0.00 in
23:51 66.8 °F 64.7 °F 30.09 in Calm     93 % 0.00 in
23:56 66.7 °F 64.6 °F 30.09 in Calm     93 % 0.00 in
Crab Meadow Weather
Compliments of Weather Underground - 3 mb

Script developed by  Jim McMurry - jmcmurry@mwt.net Adapted for the template by  Wim van der Kuil - Leuven-Template.eu

Weather Terms: Blizzard Warning - Sustained winds or frequent gusts of 35 mph or greater, considerable falling and/or blowing snow reducing visibility frequently to 1/4 mile or less for a period of three hours or more. There are no temperature criteria in the definition of a blizzard but freezing temperatures and 35 mph winds will create sub-zero wind chills.